Sioux Gateway Col. Bud Day Field
KSUX : now visible

Airfield :











YOU CAN JOIN US ON...

 
LOGIN :

Register | Disclaimer

   EN    FR    IT 

 









Legend :    VFR   Marginal VFR   IFR   Intensive IFR   Very Intensive IFR
Visi :
Ceiling :
>= 8 km
>= 3000ft
5 to 8 km
1000 to 3000 ft
1500m to 5 km
500 to 1000 ft
800 to 1500m
200 to 500 ft
< 800m
< 200 ft
Symbols :   Thunderstorms  Fog  Heavy snow  Heavy precipitations  Wind > 20 kt






- Airport Elevation : 1098 ft
- IATA code : SUX


KSUX - Sioux Gateway Col. Bud Day Field

CURRENT METAR :
  • 122052Z 34007KT 10SM OVC013 M05/M08 A3005 RMK AO2 SLP192 T10501078 56004

EXPIRED METARs :
  • 121952Z 34009KT 9SM OVC013 M06/M08 A3005 RMK AO2 SLP192 T10561083
  • 121852Z 33012KT 9SM OVC013 M04/M07 A3004 RMK AO2 SLP190 T10441072

TAF KSUX
Valid from the 12 at 18:00 until the 13 at 18:00 UTC


121817Z 1218/1318 32011KT 6SM -SN OVC012
FM122200 VRB03KT P6SM SCT015
FM131200 13008KT P6SM VCSH OVC010
FM131700 20009KT P6SM OVC008



MET'MAP, your aeronautical weather chart ! - Copyright ORBIFLY December 2007 - Disclaimer

ORBIFLY MET'MAP TEAM :

Programming & Development : Alexandra Zaïnal
Concept & original design : Baudouin d'Aumeries
Assistance for programming : Marc-Olivier Méhu
Technical & hardware support : Manuel Goepfert

Contact : metmap@orbifly.com




SOURCES & CREDITS :

   NOAA       Earth
Advisory